sensor_id;sensor_type;location;lat;lon;timestamp;temperature;humidity
42187;DHT22;27858;51.414;0.018;2023-02-11T00:01:08;8.60;99.90
42187;DHT22;27858;51.414;0.018;2023-02-11T00:03:35;8.70;99.90
42187;DHT22;27858;51.414;0.018;2023-02-11T00:06:06;8.50;99.90
42187;DHT22;27858;51.414;0.018;2023-02-11T00:08:35;8.60;99.90
42187;DHT22;27858;51.414;0.018;2023-02-11T00:11:02;8.70;99.90
42187;DHT22;27858;51.414;0.018;2023-02-11T00:13:29;8.60;99.90
42187;DHT22;27858;51.414;0.018;2023-02-11T00:15:56;8.50;99.90
42187;DHT22;27858;51.414;0.018;2023-02-11T00:18:22;8.70;99.90
42187;DHT22;27858;51.414;0.018;2023-02-11T00:20:49;8.50;99.90
42187;DHT22;27858;51.414;0.018;2023-02-11T00:23:16;8.50;99.90
42187;DHT22;27858;51.414;0.018;2023-02-11T00:25:44;8.80;99.90
42187;DHT22;27858;51.414;0.018;2023-02-11T00:28:11;8.80;99.90
42187;DHT22;27858;51.414;0.018;2023-02-11T00:30:39;8.80;99.90
42187;DHT22;27858;51.414;0.018;2023-02-11T00:33:06;8.50;99.90
42187;DHT22;27858;51.414;0.018;2023-02-11T00:35:36;8.70;99.90
42187;DHT22;27858;51.414;0.018;2023-02-11T00:38:04;8.70;99.90
42187;DHT22;27858;51.414;0.018;2023-02-11T00:40:30;8.70;99.90
42187;DHT22;27858;51.414;0.018;2023-02-11T00:42:57;8.50;99.90
42187;DHT22;27858;51.414;0.018;2023-02-11T00:45:24;8.50;99.90
42187;DHT22;27858;51.414;0.018;2023-02-11T00:47:50;8.60;99.90
42187;DHT22;27858;51.414;0.018;2023-02-11T00:50:17;8.50;99.90
42187;DHT22;27858;51.414;0.018;2023-02-11T00:52:44;8.70;99.90
42187;DHT22;27858;51.414;0.018;2023-02-11T00:55:11;8.70;99.90
42187;DHT22;27858;51.414;0.018;2023-02-11T00:57:38;8.80;99.90
42187;DHT22;27858;51.414;0.018;2023-02-11T01:00:06;8.50;99.90
42187;DHT22;27858;51.414;0.018;2023-02-11T01:02:33;8.70;99.90
42187;DHT22;27858;51.414;0.018;2023-02-11T01:05:00;8.50;99.90
42187;DHT22;27858;51.414;0.018;2023-02-11T01:07:27;8.70;99.90
42187;DHT22;27858;51.414;0.018;2023-02-11T01:09:54;8.40;99.90
42187;DHT22;27858;51.414;0.018;2023-02-11T01:12:22;8.50;99.90
42187;DHT22;27858;51.414;0.018;2023-02-11T01:14:49;8.70;99.90
42187;DHT22;27858;51.414;0.018;2023-02-11T01:17:15;8.60;99.90
42187;DHT22;27858;51.414;0.018;2023-02-11T01:19:42;8.70;99.90
42187;DHT22;27858;51.414;0.018;2023-02-11T01:22:09;8.70;99.90
42187;DHT22;27858;51.414;0.018;2023-02-11T01:24:35;8.70;99.90
42187;DHT22;27858;51.414;0.018;2023-02-11T01:27:02;8.50;99.90
42187;DHT22;27858;51.414;0.018;2023-02-11T01:29:29;8.50;99.90
42187;DHT22;27858;51.414;0.018;2023-02-11T01:31:56;8.50;99.90
42187;DHT22;27858;51.414;0.018;2023-02-11T01:34:23;8.70;99.90
42187;DHT22;27858;51.414;0.018;2023-02-11T01:36:49;8.60;99.90
42187;DHT22;27858;51.414;0.018;2023-02-11T01:39:16;8.40;99.90
42187;DHT22;27858;51.414;0.018;2023-02-11T01:41:43;8.70;99.90
42187;DHT22;27858;51.414;0.018;2023-02-11T01:44:37;8.70;99.90
42187;DHT22;27858;51.414;0.018;2023-02-11T01:47:05;8.70;99.90
42187;DHT22;27858;51.414;0.018;2023-02-11T01:49:35;8.70;99.90
42187;DHT22;27858;51.414;0.018;2023-02-11T01:52:17;8.50;99.90
42187;DHT22;27858;51.414;0.018;2023-02-11T01:54:48;8.60;99.90
42187;DHT22;27858;51.414;0.018;2023-02-11T01:57:36;8.70;99.90
42187;DHT22;27858;51.414;0.018;2023-02-11T02:00:06;8.50;99.90
42187;DHT22;27858;51.414;0.018;2023-02-11T02:05:33;8.70;99.90
42187;DHT22;27858;51.414;0.018;2023-02-11T02:10:51;8.80;99.90
42187;DHT22;27858;51.414;0.018;2023-02-11T02:13:22;8.70;99.90
42187;DHT22;27858;51.414;0.018;2023-02-11T02:26:52;8.50;99.90
42187;DHT22;27858;51.414;0.018;2023-02-11T02:40:24;8.50;99.90
42187;DHT22;27858;51.414;0.018;2023-02-11T02:42:53;8.80;99.90
42187;DHT22;27858;51.414;0.018;2023-02-11T02:45:20;8.80;99.90
42187;DHT22;27858;51.414;0.018;2023-02-11T02:47:47;8.60;99.90
42187;DHT22;27858;51.414;0.018;2023-02-11T02:50:16;8.60;99.90
42187;DHT22;27858;51.414;0.018;2023-02-11T03:12:00;8.70;99.90
42187;DHT22;27858;51.414;0.018;2023-02-11T03:14:28;8.50;99.90
42187;DHT22;27858;51.414;0.018;2023-02-11T03:16:57;8.80;99.90
42187;DHT22;27858;51.414;0.018;2023-02-11T03:19:31;8.70;99.90
42187;DHT22;27858;51.414;0.018;2023-02-11T03:22:02;8.60;99.90
42187;DHT22;27858;51.414;0.018;2023-02-11T03:24:34;8.50;99.90
42187;DHT22;27858;51.414;0.018;2023-02-11T03:27:15;8.80;99.90
42187;DHT22;27858;51.414;0.018;2023-02-11T03:29:53;8.80;99.90
42187;DHT22;27858;51.414;0.018;2023-02-11T03:32:28;8.70;99.90
42187;DHT22;27858;51.414;0.018;2023-02-11T03:34:59;8.50;99.90
42187;DHT22;27858;51.414;0.018;2023-02-11T03:37:31;8.50;99.90
42187;DHT22;27858;51.414;0.018;2023-02-11T03:40:10;8.70;99.90
42187;DHT22;27858;51.414;0.018;2023-02-11T03:43:02;8.60;99.90
42187;DHT22;27858;51.414;0.018;2023-02-11T03:45:27;8.50;99.90
42187;DHT22;27858;51.414;0.018;2023-02-11T03:47:59;8.60;99.90
42187;DHT22;27858;51.414;0.018;2023-02-11T03:50:29;8.40;99.90
42187;DHT22;27858;51.414;0.018;2023-02-11T03:53:00;8.40;99.90
42187;DHT22;27858;51.414;0.018;2023-02-11T03:55:28;8.60;99.90
42187;DHT22;27858;51.414;0.018;2023-02-11T03:57:56;8.60;99.90
42187;DHT22;27858;51.414;0.018;2023-02-11T04:00:34;8.60;99.90
42187;DHT22;27858;51.414;0.018;2023-02-11T04:03:03;8.60;99.90
42187;DHT22;27858;51.414;0.018;2023-02-11T04:05:30;8.40;99.90
42187;DHT22;27858;51.414;0.018;2023-02-11T04:07:56;8.50;99.90
42187;DHT22;27858;51.414;0.018;2023-02-11T04:10:23;8.40;99.90
42187;DHT22;27858;51.414;0.018;2023-02-11T04:12:50;8.50;99.90
42187;DHT22;27858;51.414;0.018;2023-02-11T04:15:17;8.50;99.90
42187;DHT22;27858;51.414;0.018;2023-02-11T04:17:44;8.30;99.90
42187;DHT22;27858;51.414;0.018;2023-02-11T04:20:11;8.40;99.90
42187;DHT22;27858;51.414;0.018;2023-02-11T04:22:38;8.20;99.90
42187;DHT22;27858;51.414;0.018;2023-02-11T04:25:05;8.40;99.90
42187;DHT22;27858;51.414;0.018;2023-02-11T04:27:32;8.30;99.90
42187;DHT22;27858;51.414;0.018;2023-02-11T04:29:59;8.40;99.90
42187;DHT22;27858;51.414;0.018;2023-02-11T04:32:26;8.40;99.90
42187;DHT22;27858;51.414;0.018;2023-02-11T04:34:52;8.20;99.90
42187;DHT22;27858;51.414;0.018;2023-02-11T04:37:20;8.50;99.90
42187;DHT22;27858;51.414;0.018;2023-02-11T04:39:47;8.30;99.90
42187;DHT22;27858;51.414;0.018;2023-02-11T04:42:13;8.50;99.90
42187;DHT22;27858;51.414;0.018;2023-02-11T04:44:40;8.30;99.90
42187;DHT22;27858;51.414;0.018;2023-02-11T04:47:07;8.30;99.90
42187;DHT22;27858;51.414;0.018;2023-02-11T04:49:34;8.60;99.90
42187;DHT22;27858;51.414;0.018;2023-02-11T04:52:01;8.30;99.90
42187;DHT22;27858;51.414;0.018;2023-02-11T04:54:27;8.30;99.90
42187;DHT22;27858;51.414;0.018;2023-02-11T04:56:54;8.40;99.90
42187;DHT22;27858;51.414;0.018;2023-02-11T04:59:21;8.60;99.90
42187;DHT22;27858;51.414;0.018;2023-02-11T05:01:47;8.60;99.90
42187;DHT22;27858;51.414;0.018;2023-02-11T05:04:15;8.60;99.90
42187;DHT22;27858;51.414;0.018;2023-02-11T05:06:42;8.40;99.90
42187;DHT22;27858;51.414;0.018;2023-02-11T05:09:13;8.50;99.90
42187;DHT22;27858;51.414;0.018;2023-02-11T05:11:40;8.60;99.90
42187;DHT22;27858;51.414;0.018;2023-02-11T05:14:06;8.40;99.90
42187;DHT22;27858;51.414;0.018;2023-02-11T05:16:33;8.60;99.90
42187;DHT22;27858;51.414;0.018;2023-02-11T05:19:00;8.60;99.90
42187;DHT22;27858;51.414;0.018;2023-02-11T05:21:27;8.60;99.90
42187;DHT22;27858;51.414;0.018;2023-02-11T05:23:54;8.70;99.90
42187;DHT22;27858;51.414;0.018;2023-02-11T05:26:21;8.70;99.90
42187;DHT22;27858;51.414;0.018;2023-02-11T05:28:48;8.70;99.90
42187;DHT22;27858;51.414;0.018;2023-02-11T05:31:14;8.70;99.90
42187;DHT22;27858;51.414;0.018;2023-02-11T05:33:42;8.60;99.90
42187;DHT22;27858;51.414;0.018;2023-02-11T05:36:11;8.70;99.90
42187;DHT22;27858;51.414;0.018;2023-02-11T05:38:39;8.40;99.90
42187;DHT22;27858;51.414;0.018;2023-02-11T05:41:06;8.40;99.90
42187;DHT22;27858;51.414;0.018;2023-02-11T05:43:33;8.40;99.90
42187;DHT22;27858;51.414;0.018;2023-02-11T05:46:04;8.40;99.90
42187;DHT22;27858;51.414;0.018;2023-02-11T05:48:31;8.70;99.90
42187;DHT22;27858;51.414;0.018;2023-02-11T05:50:58;8.70;99.90
42187;DHT22;27858;51.414;0.018;2023-02-11T05:53:24;8.60;99.90
42187;DHT22;27858;51.414;0.018;2023-02-11T05:55:51;8.50;99.90
42187;DHT22;27858;51.414;0.018;2023-02-11T05:58:18;8.70;99.90
42187;DHT22;27858;51.414;0.018;2023-02-11T06:00:45;8.70;99.90
42187;DHT22;27858;51.414;0.018;2023-02-11T06:03:12;8.50;99.90
42187;DHT22;27858;51.414;0.018;2023-02-11T06:05:39;8.80;99.90
42187;DHT22;27858;51.414;0.018;2023-02-11T06:08:05;8.50;99.90
42187;DHT22;27858;51.414;0.018;2023-02-11T06:10:32;8.60;99.90
42187;DHT22;27858;51.414;0.018;2023-02-11T06:13:00;8.60;99.90
42187;DHT22;27858;51.414;0.018;2023-02-11T06:15:27;8.80;99.90
42187;DHT22;27858;51.414;0.018;2023-02-11T06:17:55;8.40;99.90
42187;DHT22;27858;51.414;0.018;2023-02-11T06:20:21;8.50;99.90
42187;DHT22;27858;51.414;0.018;2023-02-11T06:22:48;8.80;99.90
42187;DHT22;27858;51.414;0.018;2023-02-11T06:25:15;8.80;99.90
42187;DHT22;27858;51.414;0.018;2023-02-11T06:27:42;8.80;99.90
42187;DHT22;27858;51.414;0.018;2023-02-11T06:30:09;8.60;99.90
42187;DHT22;27858;51.414;0.018;2023-02-11T06:32:36;8.80;99.90
42187;DHT22;27858;51.414;0.018;2023-02-11T06:35:12;8.70;99.90
42187;DHT22;27858;51.414;0.018;2023-02-11T06:37:40;8.80;99.90
42187;DHT22;27858;51.414;0.018;2023-02-11T06:40:08;8.80;99.90
42187;DHT22;27858;51.414;0.018;2023-02-11T06:42:34;8.60;99.90
42187;DHT22;27858;51.414;0.018;2023-02-11T06:45:04;8.80;99.90
42187;DHT22;27858;51.414;0.018;2023-02-11T06:47:32;8.50;99.90
42187;DHT22;27858;51.414;0.018;2023-02-11T06:49:58;8.70;99.90
42187;DHT22;27858;51.414;0.018;2023-02-11T06:52:25;8.80;99.90
42187;DHT22;27858;51.414;0.018;2023-02-11T06:54:52;8.70;99.90
42187;DHT22;27858;51.414;0.018;2023-02-11T06:57:19;8.70;99.90
42187;DHT22;27858;51.414;0.018;2023-02-11T06:59:45;8.80;99.90
42187;DHT22;27858;51.414;0.018;2023-02-11T07:02:12;8.70;99.90
42187;DHT22;27858;51.414;0.018;2023-02-11T07:04:39;8.70;99.90
42187;DHT22;27858;51.414;0.018;2023-02-11T07:07:06;8.60;99.90
42187;DHT22;27858;51.414;0.018;2023-02-11T07:09:33;8.90;99.90
42187;DHT22;27858;51.414;0.018;2023-02-11T07:12:00;8.70;99.90
42187;DHT22;27858;51.414;0.018;2023-02-11T07:14:26;8.90;99.90
42187;DHT22;27858;51.414;0.018;2023-02-11T07:16:53;8.60;99.90
42187;DHT22;27858;51.414;0.018;2023-02-11T07:19:20;8.90;99.90
42187;DHT22;27858;51.414;0.018;2023-02-11T07:21:46;8.80;99.90
42187;DHT22;27858;51.414;0.018;2023-02-11T07:24:14;8.60;99.90
42187;DHT22;27858;51.414;0.018;2023-02-11T07:26:41;8.90;99.90
42187;DHT22;27858;51.414;0.018;2023-02-11T07:29:07;8.60;99.90
42187;DHT22;27858;51.414;0.018;2023-02-11T07:31:34;8.60;99.90
42187;DHT22;27858;51.414;0.018;2023-02-11T07:34:01;8.80;99.90
42187;DHT22;27858;51.414;0.018;2023-02-11T07:36:29;8.90;99.90
42187;DHT22;27858;51.414;0.018;2023-02-11T07:38:58;8.90;99.90
42187;DHT22;27858;51.414;0.018;2023-02-11T07:41:26;8.80;99.90
42187;DHT22;27858;51.414;0.018;2023-02-11T07:43:53;8.80;99.90
42187;DHT22;27858;51.414;0.018;2023-02-11T07:46:22;8.60;99.90
42187;DHT22;27858;51.414;0.018;2023-02-11T07:48:49;8.60;99.90
42187;DHT22;27858;51.414;0.018;2023-02-11T07:51:24;8.60;99.90
42187;DHT22;27858;51.414;0.018;2023-02-11T07:53:52;8.70;99.90
42187;DHT22;27858;51.414;0.018;2023-02-11T07:56:20;8.70;99.90
42187;DHT22;27858;51.414;0.018;2023-02-11T07:58:48;8.90;99.90
42187;DHT22;27858;51.414;0.018;2023-02-11T08:01:20;8.70;99.90
42187;DHT22;27858;51.414;0.018;2023-02-11T08:03:48;8.70;99.90
42187;DHT22;27858;51.414;0.018;2023-02-11T08:06:17;8.80;99.90
42187;DHT22;27858;51.414;0.018;2023-02-11T08:08:44;8.70;99.90
42187;DHT22;27858;51.414;0.018;2023-02-11T08:11:22;8.70;99.90
42187;DHT22;27858;51.414;0.018;2023-02-11T08:13:50;9.00;99.90
42187;DHT22;27858;51.414;0.018;2023-02-11T08:16:21;9.00;99.90
42187;DHT22;27858;51.414;0.018;2023-02-11T08:18:49;8.80;99.90
42187;DHT22;27858;51.414;0.018;2023-02-11T08:21:17;8.90;99.90
42187;DHT22;27858;51.414;0.018;2023-02-11T08:23:44;8.90;99.90
42187;DHT22;27858;51.414;0.018;2023-02-11T08:26:14;8.80;99.90
42187;DHT22;27858;51.414;0.018;2023-02-11T08:28:43;9.10;99.90
42187;DHT22;27858;51.414;0.018;2023-02-11T08:31:13;9.10;99.90
42187;DHT22;27858;51.414;0.018;2023-02-11T08:33:40;8.90;99.90
42187;DHT22;27858;51.414;0.018;2023-02-11T08:36:12;9.10;99.90
42187;DHT22;27858;51.414;0.018;2023-02-11T08:38:39;8.90;99.90
42187;DHT22;27858;51.414;0.018;2023-02-11T08:41:07;9.00;99.90
42187;DHT22;27858;51.414;0.018;2023-02-11T08:43:35;9.20;99.90
42187;DHT22;27858;51.414;0.018;2023-02-11T08:46:02;9.10;99.90
42187;DHT22;27858;51.414;0.018;2023-02-11T08:48:29;9.00;99.90
42187;DHT22;27858;51.414;0.018;2023-02-11T08:50:56;9.10;99.90
42187;DHT22;27858;51.414;0.018;2023-02-11T08:53:23;9.40;99.90
42187;DHT22;27858;51.414;0.018;2023-02-11T08:55:52;9.20;99.90
42187;DHT22;27858;51.414;0.018;2023-02-11T08:58:19;9.20;99.90
42187;DHT22;27858;51.414;0.018;2023-02-11T09:00:47;9.40;99.90
42187;DHT22;27858;51.414;0.018;2023-02-11T09:03:15;9.40;99.90
42187;DHT22;27858;51.414;0.018;2023-02-11T09:05:43;9.20;99.90
42187;DHT22;27858;51.414;0.018;2023-02-11T09:08:10;9.40;99.90
42187;DHT22;27858;51.414;0.018;2023-02-11T09:10:37;9.30;99.90
42187;DHT22;27858;51.414;0.018;2023-02-11T09:13:05;9.50;99.90
42187;DHT22;27858;51.414;0.018;2023-02-11T09:15:32;9.60;99.90
42187;DHT22;27858;51.414;0.018;2023-02-11T09:17:59;9.40;99.90
42187;DHT22;27858;51.414;0.018;2023-02-11T09:20:26;9.40;99.90
42187;DHT22;27858;51.414;0.018;2023-02-11T09:22:55;9.60;99.90
42187;DHT22;27858;51.414;0.018;2023-02-11T09:25:22;9.50;99.90
42187;DHT22;27858;51.414;0.018;2023-02-11T09:27:49;9.50;99.90
42187;DHT22;27858;51.414;0.018;2023-02-11T09:30:16;9.60;99.90
42187;DHT22;27858;51.414;0.018;2023-02-11T09:32:43;9.50;99.90
42187;DHT22;27858;51.414;0.018;2023-02-11T09:35:10;9.70;99.90
42187;DHT22;27858;51.414;0.018;2023-02-11T09:37:37;9.50;99.90
42187;DHT22;27858;51.414;0.018;2023-02-11T09:40:04;9.60;99.90
42187;DHT22;27858;51.414;0.018;2023-02-11T09:45:09;9.70;99.90
42187;DHT22;27858;51.414;0.018;2023-02-11T09:47:46;9.70;99.90
42187;DHT22;27858;51.414;0.018;2023-02-11T09:50:43;9.80;99.90
42187;DHT22;27858;51.414;0.018;2023-02-11T09:53:24;9.90;99.90
42187;DHT22;27858;51.414;0.018;2023-02-11T09:55:54;9.90;99.90
42187;DHT22;27858;51.414;0.018;2023-02-11T10:14:17;10.10;99.90
42187;DHT22;27858;51.414;0.018;2023-02-11T10:17:09;10.00;99.90
42187;DHT22;27858;51.414;0.018;2023-02-11T10:22:27;10.00;99.90
42187;DHT22;27858;51.414;0.018;2023-02-11T10:24:57;10.10;99.90
42187;DHT22;27858;51.414;0.018;2023-02-11T10:27:35;10.00;99.90
42187;DHT22;27858;51.414;0.018;2023-02-11T10:32:58;10.10;99.90
42187;DHT22;27858;51.414;0.018;2023-02-11T10:35:26;10.30;99.90
42187;DHT22;27858;51.414;0.018;2023-02-11T10:37:53;10.20;99.90
42187;DHT22;27858;51.414;0.018;2023-02-11T10:40:27;10.10;99.90
42187;DHT22;27858;51.414;0.018;2023-02-11T10:42:57;10.20;99.90
42187;DHT22;27858;51.414;0.018;2023-02-11T10:45:52;10.20;99.90
42187;DHT22;27858;51.414;0.018;2023-02-11T10:48:39;10.30;99.90
42187;DHT22;27858;51.414;0.018;2023-02-11T10:53:40;10.30;99.90
42187;DHT22;27858;51.414;0.018;2023-02-11T10:56:10;10.20;99.90
42187;DHT22;27858;51.414;0.018;2023-02-11T10:58:53;10.30;99.90
42187;DHT22;27858;51.414;0.018;2023-02-11T11:01:20;10.30;99.90
42187;DHT22;27858;51.414;0.018;2023-02-11T11:03:51;10.40;99.90
42187;DHT22;27858;51.414;0.018;2023-02-11T11:06:29;10.40;99.90
42187;DHT22;27858;51.414;0.018;2023-02-11T11:08:57;10.50;99.90
42187;DHT22;27858;51.414;0.018;2023-02-11T11:11:25;10.50;99.90
42187;DHT22;27858;51.414;0.018;2023-02-11T11:16:22;10.40;99.90
42187;DHT22;27858;51.414;0.018;2023-02-11T11:19:14;10.40;99.90
42187;DHT22;27858;51.414;0.018;2023-02-11T11:21:51;10.40;99.90
42187;DHT22;27858;51.414;0.018;2023-02-11T11:24:40;10.60;99.90
42187;DHT22;27858;51.414;0.018;2023-02-11T11:27:18;10.60;99.90
42187;DHT22;27858;51.414;0.018;2023-02-11T11:29:52;10.60;99.90
42187;DHT22;27858;51.414;0.018;2023-02-11T11:32:31;10.50;99.90
42187;DHT22;27858;51.414;0.018;2023-02-11T11:35:01;10.70;99.90
42187;DHT22;27858;51.414;0.018;2023-02-11T11:37:31;10.60;99.90
42187;DHT22;27858;51.414;0.018;2023-02-11T11:40:25;10.70;99.90
42187;DHT22;27858;51.414;0.018;2023-02-11T11:43:21;10.70;99.90
42187;DHT22;27858;51.414;0.018;2023-02-11T11:45:58;10.70;99.90
42187;DHT22;27858;51.414;0.018;2023-02-11T11:48:38;10.80;99.90
42187;DHT22;27858;51.414;0.018;2023-02-11T11:51:09;10.80;99.90
42187;DHT22;27858;51.414;0.018;2023-02-11T11:53:43;10.70;99.90
42187;DHT22;27858;51.414;0.018;2023-02-11T11:58:37;10.70;99.90
42187;DHT22;27858;51.414;0.018;2023-02-11T12:01:30;10.70;99.90
42187;DHT22;27858;51.414;0.018;2023-02-11T12:15:03;10.70;99.90
42187;DHT22;27858;51.414;0.018;2023-02-11T12:20:29;10.90;99.90
42187;DHT22;27858;51.414;0.018;2023-02-11T12:23:50;10.90;99.90
42187;DHT22;27858;51.414;0.018;2023-02-11T12:34:36;11.10;99.90
42187;DHT22;27858;51.414;0.018;2023-02-11T12:39:39;11.10;99.90
42187;DHT22;27858;51.414;0.018;2023-02-11T12:42:46;11.10;99.90
42187;DHT22;27858;51.414;0.018;2023-02-11T12:45:43;11.20;99.90
42187;DHT22;27858;51.414;0.018;2023-02-11T12:48:40;11.20;99.90
42187;DHT22;27858;51.414;0.018;2023-02-11T12:53:49;11.00;99.90
42187;DHT22;27858;51.414;0.018;2023-02-11T12:56:25;11.20;99.90
42187;DHT22;27858;51.414;0.018;2023-02-11T12:58:55;11.10;97.30
42187;DHT22;27858;51.414;0.018;2023-02-11T13:01:37;11.10;96.30
42187;DHT22;27858;51.414;0.018;2023-02-11T13:04:20;11.20;95.70
42187;DHT22;27858;51.414;0.018;2023-02-11T13:07:03;11.10;94.00
42187;DHT22;27858;51.414;0.018;2023-02-11T13:09:40;11.10;95.50
42187;DHT22;27858;51.414;0.018;2023-02-11T13:12:11;11.10;98.00
42187;DHT22;27858;51.414;0.018;2023-02-11T13:15:02;11.20;94.50
42187;DHT22;27858;51.414;0.018;2023-02-11T13:17:43;11.20;85.80
42187;DHT22;27858;51.414;0.018;2023-02-11T13:26:07;11.20;92.50
42187;DHT22;27858;51.414;0.018;2023-02-11T13:29:14;11.20;72.50
42187;DHT22;27858;51.414;0.018;2023-02-11T13:31:30;11.10;70.90
42187;DHT22;27858;51.414;0.018;2023-02-11T13:33:57;11.10;74.00
42187;DHT22;27858;51.414;0.018;2023-02-11T13:36:26;11.10;91.20
42187;DHT22;27858;51.414;0.018;2023-02-11T13:39:04;11.20;86.50
42187;DHT22;27858;51.414;0.018;2023-02-11T13:41:40;11.10;73.60
42187;DHT22;27858;51.414;0.018;2023-02-11T13:49:22;11.00;72.50
42187;DHT22;27858;51.414;0.018;2023-02-11T13:51:50;11.10;82.90
42187;DHT22;27858;51.414;0.018;2023-02-11T13:54:21;11.10;80.70
42187;DHT22;27858;51.414;0.018;2023-02-11T14:02:28;11.10;67.30
42187;DHT22;27858;51.414;0.018;2023-02-11T14:13:25;11.10;67.80
42187;DHT22;27858;51.414;0.018;2023-02-11T14:21:36;11.00;86.10
42187;DHT22;27858;51.414;0.018;2023-02-11T14:29:24;11.00;44.20
42187;DHT22;27858;51.414;0.018;2023-02-11T14:37:32;11.10;48.60
42187;DHT22;27858;51.414;0.018;2023-02-11T14:42:35;11.10;41.10
42187;DHT22;27858;51.414;0.018;2023-02-11T14:45:13;11.10;38.90
42187;DHT22;27858;51.414;0.018;2023-02-11T14:50:24;11.10;27.30
42187;DHT22;27858;51.414;0.018;2023-02-11T14:52:53;11.20;27.50
42187;DHT22;27858;51.414;0.018;2023-02-11T14:55:31;11.20;24.10
42187;DHT22;27858;51.414;0.018;2023-02-11T15:00:43;11.20;23.00
42187;DHT22;27858;51.414;0.018;2023-02-11T15:03:39;11.20;28.50
42187;DHT22;27858;51.414;0.018;2023-02-11T15:06:20;11.20;23.80
42187;DHT22;27858;51.414;0.018;2023-02-11T15:08:58;11.10;18.90
42187;DHT22;27858;51.414;0.018;2023-02-11T15:11:33;11.00;21.50
42187;DHT22;27858;51.414;0.018;2023-02-11T15:14:08;11.00;17.80
42187;DHT22;27858;51.414;0.018;2023-02-11T15:16:40;11.00;23.20
42187;DHT22;27858;51.414;0.018;2023-02-11T15:19:10;11.00;23.40
42187;DHT22;27858;51.414;0.018;2023-02-11T15:21:44;11.10;24.10
42187;DHT22;27858;51.414;0.018;2023-02-11T15:24:26;11.10;23.70
42187;DHT22;27858;51.414;0.018;2023-02-11T15:29:41;11.10;20.00
42187;DHT22;27858;51.414;0.018;2023-02-11T15:32:18;11.00;13.30
42187;DHT22;27858;51.414;0.018;2023-02-11T15:34:47;10.90;22.70
42187;DHT22;27858;51.414;0.018;2023-02-11T15:37:24;10.90;21.40
42187;DHT22;27858;51.414;0.018;2023-02-11T15:39:53;10.90;24.80
42187;DHT22;27858;51.414;0.018;2023-02-11T15:42:27;10.90;23.40
42187;DHT22;27858;51.414;0.018;2023-02-11T15:47:45;10.80;24.20
42187;DHT22;27858;51.414;0.018;2023-02-11T15:52:55;10.80;18.70
42187;DHT22;27858;51.414;0.018;2023-02-11T15:55:24;10.80;17.20
42187;DHT22;27858;51.414;0.018;2023-02-11T15:57:58;10.70;22.50
42187;DHT22;27858;51.414;0.018;2023-02-11T16:00:33;10.70;30.30
42187;DHT22;27858;51.414;0.018;2023-02-11T16:03:01;10.70;23.60
42187;DHT22;27858;51.414;0.018;2023-02-11T16:05:32;10.70;20.50
42187;DHT22;27858;51.414;0.018;2023-02-11T16:08:10;10.60;25.90
42187;DHT22;27858;51.414;0.018;2023-02-11T16:10:37;10.70;28.40
42187;DHT22;27858;51.414;0.018;2023-02-11T16:18:14;10.50;35.90
42187;DHT22;27858;51.414;0.018;2023-02-11T16:20:48;10.50;28.90
42187;DHT22;27858;51.414;0.018;2023-02-11T16:23:23;10.50;28.40
42187;DHT22;27858;51.414;0.018;2023-02-11T16:26:00;10.50;32.30
42187;DHT22;27858;51.414;0.018;2023-02-11T16:28:31;10.60;30.00
42187;DHT22;27858;51.414;0.018;2023-02-11T16:30:58;10.50;29.90
42187;DHT22;27858;51.414;0.018;2023-02-11T16:33:28;10.50;28.90
42187;DHT22;27858;51.414;0.018;2023-02-11T16:35:55;10.40;25.80
42187;DHT22;27858;51.414;0.018;2023-02-11T16:38:23;10.50;30.40
42187;DHT22;27858;51.414;0.018;2023-02-11T16:40:50;10.50;39.00
42187;DHT22;27858;51.414;0.018;2023-02-11T16:43:18;10.40;39.80
42187;DHT22;27858;51.414;0.018;2023-02-11T16:45:45;10.50;38.10
42187;DHT22;27858;51.414;0.018;2023-02-11T16:48:16;10.50;34.70
42187;DHT22;27858;51.414;0.018;2023-02-11T16:50:46;10.50;35.40
42187;DHT22;27858;51.414;0.018;2023-02-11T16:53:21;10.50;36.50
42187;DHT22;27858;51.414;0.018;2023-02-11T16:55:54;10.50;39.00
42187;DHT22;27858;51.414;0.018;2023-02-11T16:58:21;10.50;32.40
42187;DHT22;27858;51.414;0.018;2023-02-11T17:00:48;10.40;30.90
42187;DHT22;27858;51.414;0.018;2023-02-11T17:03:20;10.30;32.40
42187;DHT22;27858;51.414;0.018;2023-02-11T17:05:48;10.30;39.30
42187;DHT22;27858;51.414;0.018;2023-02-11T17:08:21;10.30;43.20
42187;DHT22;27858;51.414;0.018;2023-02-11T17:10:48;10.30;44.10
42187;DHT22;27858;51.414;0.018;2023-02-11T17:13:15;10.30;45.40
42187;DHT22;27858;51.414;0.018;2023-02-11T17:15:42;10.30;38.60
42187;DHT22;27858;51.414;0.018;2023-02-11T17:18:12;10.20;40.50
42187;DHT22;27858;51.414;0.018;2023-02-11T17:20:40;10.30;42.00
42187;DHT22;27858;51.414;0.018;2023-02-11T17:23:07;10.20;37.50
42187;DHT22;27858;51.414;0.018;2023-02-11T17:25:34;10.20;42.40
42187;DHT22;27858;51.414;0.018;2023-02-11T17:28:07;10.20;39.70
42187;DHT22;27858;51.414;0.018;2023-02-11T17:30:34;10.20;35.40
42187;DHT22;27858;51.414;0.018;2023-02-11T17:33:01;10.20;29.00
42187;DHT22;27858;51.414;0.018;2023-02-11T17:35:28;10.20;30.80
42187;DHT22;27858;51.414;0.018;2023-02-11T17:37:54;10.20;32.50
42187;DHT22;27858;51.414;0.018;2023-02-11T17:40:24;10.20;33.70
42187;DHT22;27858;51.414;0.018;2023-02-11T17:42:51;10.10;31.30
42187;DHT22;27858;51.414;0.018;2023-02-11T17:45:17;10.20;35.80
42187;DHT22;27858;51.414;0.018;2023-02-11T17:47:47;10.10;40.50
42187;DHT22;27858;51.414;0.018;2023-02-11T17:50:15;10.10;42.70
42187;DHT22;27858;51.414;0.018;2023-02-11T17:52:42;10.10;43.00
42187;DHT22;27858;51.414;0.018;2023-02-11T17:55:09;10.10;34.30
42187;DHT22;27858;51.414;0.018;2023-02-11T17:57:36;10.10;25.70
42187;DHT22;27858;51.414;0.018;2023-02-11T18:00:04;10.10;14.60
42187;DHT22;27858;51.414;0.018;2023-02-11T18:02:32;10.00;12.60
42187;DHT22;27858;51.414;0.018;2023-02-11T18:04:59;10.10;13.90
42187;DHT22;27858;51.414;0.018;2023-02-11T18:07:26;10.10;17.00
42187;DHT22;27858;51.414;0.018;2023-02-11T18:09:53;10.00;15.60
42187;DHT22;27858;51.414;0.018;2023-02-11T18:12:20;10.10;17.70
42187;DHT22;27858;51.414;0.018;2023-02-11T18:14:52;10.00;21.90
42187;DHT22;27858;51.414;0.018;2023-02-11T18:17:23;10.10;25.60
42187;DHT22;27858;51.414;0.018;2023-02-11T18:19:54;10.10;23.50
42187;DHT22;27858;51.414;0.018;2023-02-11T18:22:21;10.00;15.50
42187;DHT22;27858;51.414;0.018;2023-02-11T18:24:52;10.10;16.10
42187;DHT22;27858;51.414;0.018;2023-02-11T18:27:23;10.10;14.60
42187;DHT22;27858;51.414;0.018;2023-02-11T18:29:49;10.00;17.10
42187;DHT22;27858;51.414;0.018;2023-02-11T18:32:16;10.10;18.70
42187;DHT22;27858;51.414;0.018;2023-02-11T18:34:43;10.10;18.70
42187;DHT22;27858;51.414;0.018;2023-02-11T18:37:09;10.00;14.40
42187;DHT22;27858;51.414;0.018;2023-02-11T18:39:39;9.90;15.70
42187;DHT22;27858;51.414;0.018;2023-02-11T18:42:06;10.00;17.70
42187;DHT22;27858;51.414;0.018;2023-02-11T18:44:33;10.00;17.30
42187;DHT22;27858;51.414;0.018;2023-02-11T18:47:00;10.00;15.50
42187;DHT22;27858;51.414;0.018;2023-02-11T18:49:26;10.00;15.20